createdAt,value
2018-08-03T00:01:46.088Z,27.40
2018-08-03T00:04:14.485Z,27.40
2018-08-03T00:06:43.101Z,27.40
2018-08-03T00:09:11.469Z,27.30
2018-08-03T00:11:39.933Z,27.40
2018-08-03T00:14:08.428Z,27.30
2018-08-03T00:16:36.825Z,27.30
2018-08-03T00:19:05.197Z,27.30
2018-08-03T00:21:33.746Z,27.30
2018-08-03T00:24:02.118Z,27.30
2018-08-03T00:26:30.490Z,27.30
2018-08-03T00:28:59.142Z,27.20
2018-08-03T00:33:55.624Z,27.20
2018-08-03T00:36:24.062Z,27.30
2018-08-03T00:38:52.453Z,27.40
2018-08-03T00:41:20.866Z,27.50
2018-08-03T00:43:49.489Z,27.50
2018-08-03T00:46:18.018Z,27.40
2018-08-03T00:48:46.426Z,27.30
2018-08-03T00:51:14.857Z,27.30
2018-08-03T00:53:43.278Z,27.40
2018-08-03T00:56:11.677Z,27.40
2018-08-03T00:58:40.034Z,27.50
2018-08-03T01:01:08.590Z,27.40
2018-08-03T01:03:36.913Z,27.50
2018-08-03T01:06:05.230Z,27.40
2018-08-03T01:08:33.730Z,27.30
2018-08-03T01:11:02.086Z,27.40
2018-08-03T01:13:30.406Z,27.40
2018-08-03T01:15:58.778Z,27.30
2018-08-03T01:18:27.086Z,27.20
2018-08-03T01:20:55.500Z,27.20
2018-08-03T01:23:24.055Z,27.10
2018-08-03T01:25:52.386Z,27.10
2018-08-03T01:28:20.706Z,27.10
2018-08-03T01:30:49.342Z,27.10
2018-08-03T01:33:17.694Z,27.20
2018-08-03T01:35:46.018Z,27.20
2018-08-03T01:38:14.415Z,27.10
2018-08-03T01:40:42.731Z,27.00
2018-08-03T01:43:11.078Z,27.00
2018-08-03T01:45:39.427Z,27.00
2018-08-03T01:48:07.730Z,26.90
2018-08-03T01:50:36.074Z,26.70
2018-08-03T01:53:04.427Z,26.60
2018-08-03T01:55:32.771Z,26.70
2018-08-03T01:58:01.144Z,26.80
2018-08-03T02:00:29.470Z,26.80
2018-08-03T02:02:57.845Z,26.60
2018-08-03T02:05:26.182Z,26.50
2018-08-03T02:07:54.575Z,26.40
2018-08-03T02:10:23.090Z,26.50
2018-08-03T02:12:51.440Z,26.60
2018-08-03T02:15:19.790Z,26.50
2018-08-03T02:17:48.135Z,26.40
2018-08-03T02:20:16.472Z,26.30
2018-08-03T02:22:44.800Z,26.30
2018-08-03T02:25:13.151Z,26.30
2018-08-03T02:27:41.487Z,26.40
2018-08-03T02:30:09.790Z,26.40
2018-08-03T02:32:38.643Z,26.40
2018-08-03T02:35:06.976Z,26.20
2018-08-03T02:37:35.306Z,26.20
2018-08-03T02:40:03.702Z,26.20
2018-08-03T02:42:32.031Z,26.20
2018-08-03T02:45:00.355Z,26.20
2018-08-03T02:47:28.698Z,26.20
2018-08-03T02:49:57.010Z,26.00
2018-08-03T02:52:25.375Z,26.20
2018-08-03T02:54:53.703Z,26.20
2018-08-03T02:57:22.025Z,26.20
2018-08-03T02:59:50.354Z,26.10
2018-08-03T03:02:18.693Z,26.20
2018-08-03T03:04:47.025Z,26.20
2018-08-03T03:07:15.400Z,26.20
2018-08-03T03:09:43.707Z,26.20
2018-08-03T03:12:12.078Z,26.10
2018-08-03T03:14:40.420Z,25.90
2018-08-03T03:17:08.770Z,25.90
2018-08-03T03:19:37.218Z,25.90
2018-08-03T03:22:05.590Z,25.90
2018-08-03T03:24:33.986Z,26.00
2018-08-03T03:27:02.358Z,25.90
2018-08-03T03:29:30.734Z,25.90
2018-08-03T03:31:59.138Z,26.00
2018-08-03T03:34:27.514Z,25.90
2018-08-03T03:36:55.899Z,25.90
2018-08-03T03:39:24.292Z,25.70
2018-08-03T03:41:52.635Z,25.60
2018-08-03T03:44:21.014Z,25.70
2018-08-03T03:46:49.347Z,25.70
2018-08-03T03:49:17.674Z,25.50
2018-08-03T03:51:46.085Z,25.50
2018-08-03T03:54:14.405Z,25.40
2018-08-03T03:56:42.766Z,25.40
2018-08-03T03:59:11.141Z,25.40
2018-08-03T04:01:39.481Z,25.40
2018-08-03T04:04:08.044Z,25.40
2018-08-03T04:06:36.399Z,25.50
2018-08-03T04:09:08.207Z,25.50
2018-08-03T04:11:36.592Z,25.50
2018-08-03T04:14:04.950Z,25.50
2018-08-03T04:16:33.318Z,25.40
2018-08-03T04:19:01.663Z,25.30
2018-08-03T04:21:30.057Z,25.40
2018-08-03T04:23:58.381Z,25.50
2018-08-03T04:26:26.783Z,25.60
2018-08-03T04:28:55.166Z,25.80
2018-08-03T04:31:23.543Z,25.80
2018-08-03T04:33:52.013Z,25.90
2018-08-03T04:36:20.357Z,25.80
2018-08-03T04:38:48.790Z,25.90
2018-08-03T04:41:17.126Z,26.00
2018-08-03T04:43:45.515Z,26.00
2018-08-03T04:46:13.878Z,25.90
2018-08-03T04:48:42.315Z,25.90
2018-08-03T04:51:10.615Z,26.10
2018-08-03T04:53:38.982Z,26.20
2018-08-03T04:56:07.334Z,26.20
2018-08-03T04:58:35.682Z,26.10
2018-08-03T05:01:04.055Z,26.00
2018-08-03T05:03:32.438Z,26.10
2018-08-03T05:06:00.810Z,26.10
2018-08-03T05:08:29.147Z,26.20
2018-08-03T05:10:57.505Z,26.20
2018-08-03T05:13:25.899Z,26.20
2018-08-03T05:15:54.295Z,26.00
2018-08-03T05:18:22.678Z,26.10
2018-08-03T05:20:51.107Z,26.20
2018-08-03T05:23:19.475Z,26.10
2018-08-03T05:25:47.847Z,26.10
2018-08-03T05:28:16.246Z,26.20
2018-08-03T05:30:44.666Z,26.20
2018-08-03T05:33:13.030Z,26.30
2018-08-03T05:35:41.414Z,26.30
2018-08-03T05:38:09.883Z,26.20
2018-08-03T05:40:38.251Z,26.20
2018-08-03T05:43:06.619Z,26.30
2018-08-03T05:45:35.022Z,26.30
2018-08-03T05:48:03.464Z,26.40
2018-08-03T05:52:59.923Z,26.50
2018-08-03T05:55:28.283Z,26.50
2018-08-03T05:57:56.706Z,26.60
2018-08-03T06:00:25.083Z,26.50
2018-08-03T06:02:54.570Z,26.60
2018-08-03T06:05:23.006Z,26.70
2018-08-03T06:07:51.426Z,26.70
2018-08-03T06:10:19.842Z,26.70
2018-08-03T06:12:48.208Z,26.70
2018-08-03T06:15:16.677Z,26.80
2018-08-03T06:17:45.045Z,26.80
2018-08-03T06:20:14.025Z,26.90
2018-08-03T06:22:42.746Z,26.90
2018-08-03T06:25:11.415Z,27.00
2018-08-03T06:27:39.790Z,27.10
2018-08-03T06:30:10.151Z,27.10
2018-08-03T06:32:38.990Z,27.20
2018-08-03T06:35:07.494Z,27.20
2018-08-03T06:40:04.452Z,27.10
2018-08-03T06:42:33.090Z,27.10
2018-08-03T06:45:01.442Z,27.10
2018-08-03T06:47:29.779Z,27.10
2018-08-03T06:49:58.122Z,27.20
2018-08-03T06:52:26.451Z,27.20
2018-08-03T06:54:54.885Z,27.30
2018-08-03T06:57:23.343Z,27.40
2018-08-03T06:59:51.679Z,27.50
2018-08-03T07:02:20.099Z,27.60
2018-08-03T07:04:48.526Z,27.60
2018-08-03T07:07:16.851Z,27.70
2018-08-03T07:09:45.217Z,27.70
2018-08-03T07:12:13.562Z,27.80
2018-08-03T07:14:41.982Z,28.00
2018-08-03T07:17:10.368Z,28.10
2018-08-03T07:19:39.059Z,28.30
2018-08-03T07:22:07.594Z,28.40
2018-08-03T07:24:35.974Z,28.60
2018-08-03T07:27:04.348Z,28.90
2018-08-03T07:29:32.694Z,29.40
2018-08-03T07:32:01.058Z,30.20
2018-08-03T07:34:29.405Z,30.90
2018-08-03T07:36:57.907Z,31.70
2018-08-03T07:39:26.223Z,32.30
2018-08-03T07:41:54.599Z,33.00
2018-08-03T07:44:23.009Z,33.40
2018-08-03T07:46:51.361Z,33.80
2018-08-03T07:49:19.725Z,34.10
2018-08-03T07:51:48.114Z,34.30
2018-08-03T07:54:16.522Z,34.70
2018-08-03T07:56:44.890Z,34.90
2018-08-03T07:59:13.288Z,35.20
2018-08-03T08:01:41.691Z,35.40
2018-08-03T08:04:10.087Z,35.60
2018-08-03T08:06:38.434Z,35.70
2018-08-03T08:09:09.063Z,35.80
2018-08-03T08:11:37.536Z,35.90
2018-08-03T08:14:06.051Z,36.00
2018-08-03T08:16:34.487Z,36.20
2018-08-03T08:19:03.158Z,36.30
2018-08-03T08:21:31.519Z,36.50
2018-08-03T08:23:59.868Z,36.60
2018-08-03T08:26:28.211Z,36.70
2018-08-03T08:28:56.542Z,36.80
2018-08-03T08:31:24.906Z,37.20
2018-08-03T08:33:53.760Z,37.20
2018-08-03T08:36:22.077Z,37.00
2018-08-03T08:38:50.430Z,37.10
2018-08-03T08:41:18.795Z,37.20
2018-08-03T08:43:47.188Z,37.50
2018-08-03T08:46:15.553Z,37.50
2018-08-03T08:48:43.934Z,37.70
2018-08-03T08:51:12.298Z,37.70
2018-08-03T08:53:40.631Z,37.60
2018-08-03T08:56:08.951Z,37.50
2018-08-03T08:58:37.302Z,37.50
2018-08-03T09:01:05.684Z,37.40
2018-08-03T09:03:34.018Z,37.40
2018-08-03T09:06:02.350Z,37.50
2018-08-03T09:08:30.683Z,37.40
2018-08-03T09:10:59.071Z,37.30
2018-08-03T09:13:27.626Z,37.30
2018-08-03T09:15:56.016Z,37.30
2018-08-03T09:18:24.425Z,37.30
2018-08-03T09:20:52.769Z,37.20
2018-08-03T09:23:21.162Z,37.10
2018-08-03T09:25:49.520Z,37.10
2018-08-03T09:28:17.924Z,37.10
2018-08-03T09:30:46.304Z,37.10
2018-08-03T09:33:14.670Z,37.10
2018-08-03T09:35:43.071Z,37.00
2018-08-03T09:38:11.420Z,37.00
2018-08-03T09:40:39.802Z,37.10
2018-08-03T09:43:08.195Z,37.00
2018-08-03T09:45:36.570Z,37.00
2018-08-03T09:48:04.983Z,37.00
2018-08-03T09:50:33.331Z,36.80
2018-08-03T09:53:01.766Z,36.90
2018-08-03T09:55:30.130Z,37.00
2018-08-03T09:57:58.573Z,36.80
2018-08-03T10:00:32.391Z,36.90
2018-08-03T10:03:00.775Z,37.00
2018-08-03T10:05:29.118Z,36.80
2018-08-03T10:07:57.491Z,36.80
2018-08-03T10:10:26.010Z,36.70
2018-08-03T10:12:54.400Z,36.70
2018-08-03T10:15:22.792Z,36.70
2018-08-03T10:17:51.162Z,36.70
2018-08-03T10:20:19.571Z,36.70
2018-08-03T10:22:47.953Z,36.60
2018-08-03T10:25:16.335Z,36.60
2018-08-03T10:27:44.676Z,36.60
2018-08-03T10:30:13.051Z,36.50
2018-08-03T10:32:41.383Z,36.50
2018-08-03T10:35:09.733Z,36.50
2018-08-03T10:37:38.095Z,36.40
2018-08-03T10:40:06.463Z,36.50
2018-08-03T10:42:34.903Z,36.50
2018-08-03T10:45:03.267Z,36.40
2018-08-03T10:47:31.582Z,36.40
2018-08-03T10:49:59.942Z,36.50
2018-08-03T10:52:28.279Z,36.50
2018-08-03T10:54:56.646Z,36.50
2018-08-03T10:57:25.033Z,36.40
2018-08-03T10:59:53.419Z,36.40
2018-08-03T11:02:21.743Z,36.40
2018-08-03T11:04:50.091Z,36.40
2018-08-03T11:07:18.428Z,36.40
2018-08-03T11:09:46.742Z,36.50
2018-08-03T11:12:15.102Z,36.50
2018-08-03T11:14:43.451Z,36.50
2018-08-03T11:17:11.791Z,36.40
2018-08-03T11:19:40.138Z,36.40
2018-08-03T11:22:08.458Z,36.40
2018-08-03T11:24:36.787Z,36.30
2018-08-03T11:27:05.216Z,36.30
2018-08-03T11:29:33.543Z,36.10
2018-08-03T11:32:01.880Z,35.90
2018-08-03T11:34:30.190Z,35.70
2018-08-03T11:36:58.518Z,35.60
2018-08-03T11:39:26.884Z,35.50
2018-08-03T11:41:55.239Z,35.40
2018-08-03T11:44:23.598Z,35.30
2018-08-03T11:46:51.947Z,35.20
2018-08-03T11:49:20.283Z,35.10
2018-08-03T11:51:48.603Z,35.10
2018-08-03T11:54:16.932Z,35.00
2018-08-03T11:56:45.243Z,34.90
2018-08-03T11:59:13.562Z,34.90
2018-08-03T12:01:41.903Z,34.80
2018-08-03T12:04:10.238Z,34.80
2018-08-03T12:06:38.688Z,34.70
2018-08-03T12:09:07.526Z,34.70
2018-08-03T12:11:35.876Z,34.70
2018-08-03T12:14:04.271Z,34.70
2018-08-03T12:16:32.576Z,34.70
2018-08-03T12:19:00.931Z,34.50
2018-08-03T12:21:29.267Z,34.40
2018-08-03T12:23:57.760Z,34.40
2018-08-03T12:26:26.069Z,34.30
2018-08-03T12:28:54.438Z,34.40
2018-08-03T12:31:22.894Z,34.40
2018-08-03T12:33:51.178Z,34.40
2018-08-03T12:36:19.526Z,34.40
2018-08-03T12:38:48.014Z,34.30
2018-08-03T12:41:16.447Z,34.40
2018-08-03T12:43:44.847Z,34.40
2018-08-03T12:46:13.203Z,34.40
2018-08-03T12:48:41.548Z,34.50
2018-08-03T12:51:09.907Z,34.40
2018-08-03T12:53:38.244Z,34.40
2018-08-03T12:56:06.724Z,34.50
2018-08-03T12:58:35.190Z,34.50
2018-08-03T13:01:03.665Z,34.50
2018-08-03T13:03:32.146Z,34.40
2018-08-03T13:06:00.487Z,34.40
2018-08-03T13:08:29.057Z,34.40
2018-08-03T13:10:57.256Z,34.40
2018-08-03T13:13:25.595Z,34.40
2018-08-03T13:15:53.979Z,34.40
2018-08-03T13:18:22.367Z,34.30
2018-08-03T13:20:50.708Z,34.30
2018-08-03T13:23:19.079Z,34.30
2018-08-03T13:25:47.448Z,34.30
2018-08-03T13:28:15.827Z,34.30
2018-08-03T13:30:44.249Z,34.30
2018-08-03T13:33:12.655Z,34.30
2018-08-03T13:35:41.006Z,34.20
2018-08-03T13:38:09.383Z,34.20
2018-08-03T13:40:37.757Z,34.20
2018-08-03T13:43:06.127Z,34.20
2018-08-03T13:45:34.482Z,34.10
2018-08-03T13:48:02.846Z,34.10
2018-08-03T13:50:31.230Z,34.10
2018-08-03T13:52:59.580Z,34.10
2018-08-03T13:55:27.958Z,34.20
2018-08-03T13:57:56.330Z,34.10
2018-08-03T14:00:24.706Z,34.20
2018-08-03T14:02:53.072Z,34.20
2018-08-03T14:05:21.424Z,34.10
2018-08-03T14:07:49.783Z,34.10
2018-08-03T14:10:18.134Z,34.10
2018-08-03T14:12:46.504Z,34.10
2018-08-03T14:15:14.866Z,34.10
2018-08-03T14:17:43.200Z,34.10
2018-08-03T14:20:11.535Z,34.10
2018-08-03T14:22:39.858Z,34.10
2018-08-03T14:25:08.222Z,34.10
2018-08-03T14:27:36.594Z,34.10
2018-08-03T14:30:06.192Z,34.10
2018-08-03T14:32:34.510Z,34.00
2018-08-03T14:35:02.835Z,34.00
2018-08-03T14:37:31.184Z,34.00
2018-08-03T14:39:59.494Z,33.90
2018-08-03T14:42:27.867Z,34.00
2018-08-03T14:44:56.191Z,33.90
2018-08-03T14:47:24.559Z,33.90
2018-08-03T14:49:52.931Z,33.90
2018-08-03T14:52:21.492Z,33.90
2018-08-03T14:54:49.827Z,33.90
2018-08-03T14:57:18.155Z,33.90
2018-08-03T14:59:46.507Z,33.90
2018-08-03T15:02:14.814Z,33.90
2018-08-03T15:04:43.373Z,33.90
2018-08-03T15:07:11.716Z,33.90
2018-08-03T15:09:40.038Z,33.90
2018-08-03T15:12:08.407Z,34.00
2018-08-03T15:14:36.743Z,33.90
2018-08-03T15:17:05.055Z,33.90
2018-08-03T15:19:33.437Z,33.90
2018-08-03T15:22:01.714Z,34.00
2018-08-03T15:24:30.065Z,34.00
2018-08-03T15:26:58.410Z,34.00
2018-08-03T15:29:26.811Z,34.10
2018-08-03T15:31:55.191Z,34.10
2018-08-03T15:34:23.538Z,34.10
2018-08-03T15:36:52.016Z,34.10
2018-08-03T15:39:20.287Z,34.10
2018-08-03T15:41:48.642Z,34.10
2018-08-03T15:44:17.033Z,34.10
2018-08-03T15:46:45.421Z,34.10
2018-08-03T15:49:13.800Z,34.20
2018-08-03T15:51:42.147Z,34.10
2018-08-03T15:54:10.502Z,34.10
2018-08-03T15:56:38.851Z,34.10
2018-08-03T15:59:07.248Z,34.10
2018-08-03T16:01:35.605Z,34.10
2018-08-03T16:04:03.970Z,34.00
2018-08-03T16:06:32.328Z,34.00
2018-08-03T16:09:00.682Z,34.00
2018-08-03T16:11:29.067Z,34.00
2018-08-03T16:13:57.417Z,34.00
2018-08-03T16:16:25.783Z,33.90
2018-08-03T16:21:22.236Z,33.90
2018-08-03T16:23:50.594Z,33.90
2018-08-03T16:26:18.971Z,33.90
2018-08-03T16:28:47.347Z,34.00
2018-08-03T16:31:16.094Z,33.90
2018-08-03T16:33:44.442Z,33.90
2018-08-03T16:36:12.859Z,33.90
2018-08-03T16:38:41.242Z,33.90
2018-08-03T16:41:09.619Z,33.90
2018-08-03T16:43:37.982Z,33.90
2018-08-03T16:46:06.633Z,33.90
2018-08-03T16:48:35.021Z,33.90
2018-08-03T16:51:03.411Z,33.90
2018-08-03T16:53:31.795Z,33.90
2018-08-03T16:56:00.170Z,33.90
2018-08-03T16:58:28.531Z,33.90
2018-08-03T17:00:56.911Z,33.90
2018-08-03T17:03:25.345Z,33.90
2018-08-03T17:05:53.884Z,33.90
2018-08-03T17:08:22.275Z,33.90
2018-08-03T17:10:50.647Z,33.90
2018-08-03T17:13:19.039Z,33.90
2018-08-03T17:15:47.379Z,33.90
2018-08-03T17:18:15.731Z,33.90
2018-08-03T17:20:44.078Z,33.80
2018-08-03T17:23:12.454Z,33.80
2018-08-03T17:25:40.807Z,33.80
2018-08-03T17:28:09.206Z,33.80
2018-08-03T17:30:37.546Z,33.80
2018-08-03T17:33:05.886Z,33.80
2018-08-03T17:35:34.230Z,33.90
2018-08-03T17:38:02.563Z,33.80
2018-08-03T17:40:30.874Z,33.80
2018-08-03T17:42:59.207Z,33.80
2018-08-03T17:45:27.594Z,33.80
2018-08-03T17:47:55.925Z,33.80
2018-08-03T17:50:24.262Z,33.80
2018-08-03T17:52:52.649Z,33.80
2018-08-03T17:55:20.968Z,33.80
2018-08-03T17:57:49.270Z,33.70
2018-08-03T18:00:17.601Z,33.70
2018-08-03T18:02:45.933Z,33.70
2018-08-03T18:05:14.258Z,33.70
2018-08-03T18:07:42.622Z,33.70
2018-08-03T18:10:10.950Z,33.70
2018-08-03T18:12:39.314Z,33.70
2018-08-03T18:15:08.203Z,33.70
2018-08-03T18:17:36.765Z,33.60
2018-08-03T18:20:05.445Z,33.60
2018-08-03T18:22:33.794Z,33.60
2018-08-03T18:25:02.143Z,33.60
2018-08-03T18:27:30.466Z,33.50
2018-08-03T18:29:58.838Z,33.50
2018-08-03T18:32:27.187Z,33.50
2018-08-03T18:34:55.535Z,33.50
2018-08-03T18:37:23.911Z,33.50
2018-08-03T18:39:52.359Z,33.40
2018-08-03T18:42:20.722Z,33.40
2018-08-03T18:44:49.106Z,33.30
2018-08-03T18:47:17.487Z,33.30
2018-08-03T18:49:45.830Z,33.30
2018-08-03T18:52:14.281Z,33.20
2018-08-03T18:54:42.634Z,33.20
2018-08-03T18:57:11.002Z,33.20
2018-08-03T18:59:39.384Z,33.10
2018-08-03T19:02:07.762Z,33.10
2018-08-03T19:04:36.115Z,33.10
2018-08-03T19:07:04.543Z,33.10
2018-08-03T19:09:32.895Z,33.00
2018-08-03T19:12:01.279Z,33.00
2018-08-03T19:14:29.630Z,33.00
2018-08-03T19:16:58.062Z,32.90
2018-08-03T19:19:26.408Z,32.90
2018-08-03T19:21:54.839Z,32.80
2018-08-03T19:24:23.136Z,32.70
2018-08-03T19:26:51.467Z,32.70
2018-08-03T19:29:19.867Z,32.70
2018-08-03T19:31:48.214Z,32.70
2018-08-03T19:34:16.518Z,32.70
2018-08-03T19:36:44.861Z,32.70
2018-08-03T19:39:13.275Z,32.50
2018-08-03T19:41:41.642Z,32.50
2018-08-03T19:44:10.011Z,32.50
2018-08-03T19:46:38.535Z,32.50
2018-08-03T19:49:07.029Z,32.60
2018-08-03T19:51:35.358Z,32.50
2018-08-03T19:54:03.762Z,32.50
2018-08-03T19:56:32.242Z,32.50
2018-08-03T19:59:00.587Z,32.50
2018-08-03T20:01:28.929Z,32.30
2018-08-03T20:03:57.260Z,32.20
2018-08-03T20:06:25.618Z,32.10
2018-08-03T20:08:53.982Z,32.00
2018-08-03T20:11:22.350Z,32.00
2018-08-03T20:13:50.783Z,32.00
2018-08-03T20:16:19.042Z,31.90
2018-08-03T20:18:47.370Z,31.70
2018-08-03T20:21:15.731Z,31.60
2018-08-03T20:23:44.112Z,31.70
2018-08-03T20:26:12.423Z,31.60
2018-08-03T20:28:40.783Z,31.50
2018-08-03T20:31:09.979Z,31.50
2018-08-03T20:33:38.342Z,31.50
2018-08-03T20:36:06.667Z,31.50
2018-08-03T20:38:34.994Z,31.40
2018-08-03T20:41:03.394Z,31.40
2018-08-03T20:43:31.727Z,31.20
2018-08-03T20:46:00.067Z,31.00
2018-08-03T20:48:28.393Z,30.90
2018-08-03T20:50:56.730Z,31.00
2018-08-03T20:53:25.101Z,31.10
2018-08-03T20:55:53.431Z,31.10
2018-08-03T20:58:21.772Z,31.00
2018-08-03T21:00:50.118Z,31.00
2018-08-03T21:03:18.465Z,31.00
2018-08-03T21:05:46.822Z,31.00
2018-08-03T21:08:15.139Z,31.10
2018-08-03T21:10:43.479Z,31.10
2018-08-03T21:13:11.838Z,31.00
2018-08-03T21:15:40.161Z,31.00
2018-08-03T21:18:08.516Z,30.70
2018-08-03T21:20:36.928Z,30.70
2018-08-03T21:23:05.338Z,30.50
2018-08-03T21:25:33.674Z,30.60
2018-08-03T21:28:02.010Z,30.60
2018-08-03T21:30:30.396Z,30.60
2018-08-03T21:32:58.755Z,30.80
2018-08-03T21:35:27.119Z,30.70
2018-08-03T21:37:55.507Z,30.50
2018-08-03T21:40:23.894Z,30.30
2018-08-03T21:42:52.254Z,30.20
2018-08-03T21:45:20.607Z,30.00
2018-08-03T21:47:48.959Z,29.90
2018-08-03T21:50:17.339Z,29.90
2018-08-03T21:52:45.702Z,30.00
2018-08-03T21:55:14.088Z,30.10
2018-08-03T21:57:42.466Z,30.20
2018-08-03T22:00:15.056Z,30.30
2018-08-03T22:02:43.407Z,30.40
2018-08-03T22:05:11.766Z,30.40
2018-08-03T22:07:40.178Z,30.40
2018-08-03T22:10:08.556Z,30.40
2018-08-03T22:12:36.942Z,30.40
2018-08-03T22:15:05.407Z,30.40
2018-08-03T22:17:33.770Z,30.40
2018-08-03T22:20:02.283Z,30.30
2018-08-03T22:22:30.620Z,30.20
2018-08-03T22:24:59.018Z,30.20
2018-08-03T22:27:27.506Z,30.20
2018-08-03T22:29:55.892Z,30.10
2018-08-03T22:32:24.349Z,30.00
2018-08-03T22:34:52.651Z,30.10
2018-08-03T22:37:21.159Z,30.20
2018-08-03T22:39:49.531Z,30.10
2018-08-03T22:42:17.930Z,30.20
2018-08-03T22:44:46.294Z,30.20
2018-08-03T22:47:14.659Z,30.20
2018-08-03T22:49:43.049Z,30.10
2018-08-03T22:54:39.503Z,30.10
2018-08-03T22:57:08.008Z,30.10
2018-08-03T22:59:36.354Z,30.00
2018-08-03T23:02:07.130Z,30.00
2018-08-03T23:04:35.927Z,30.10
2018-08-03T23:07:04.307Z,30.10
2018-08-03T23:09:32.666Z,30.10
2018-08-03T23:12:01.029Z,30.10
2018-08-03T23:14:29.447Z,30.10
2018-08-03T23:16:57.835Z,29.90
2018-08-03T23:19:26.317Z,29.90
2018-08-03T23:21:54.694Z,29.90
2018-08-03T23:24:23.058Z,29.80
2018-08-03T23:26:51.451Z,29.80
2018-08-03T23:29:19.842Z,29.60
2018-08-03T23:31:48.228Z,29.50
2018-08-03T23:34:16.599Z,29.60
2018-08-03T23:36:44.954Z,29.50
2018-08-03T23:39:13.331Z,29.50
2018-08-03T23:41:41.676Z,29.50
2018-08-03T23:44:10.019Z,29.50
2018-08-03T23:46:38.391Z,29.50
2018-08-03T23:49:06.762Z,29.40
2018-08-03T23:51:35.131Z,29.40
2018-08-03T23:54:03.502Z,29.30
2018-08-03T23:56:31.869Z,29.20
2018-08-03T23:59:00.226Z,29.10
